Terminal Aerodrome Forecast
Issued by NWS Charleston, WV

Current Version | Previous Version | Graphics & Text | Print | Product List | Glossary On
Versions: 1 2 3 4 5 6 7 8 9 10 11 12 13 14 15 16 17 18 19 20 21 22 23 24
837
FTUS41 KRLX 270916 AAA
TAFHTS
TAF AMD
KHTS 270916Z 2709/2806 19004KT P6SM -RA OVC090
     FM271200 VRB03KT 4SM BR OVC015
     FM271400 03004KT P6SM OVC015
     FM271600 02004KT P6SM BKN025
     FM271900 00000KT 4SM SHRA VCTS BKN040CB
     FM272300 VRB04KT P6SM OVC050
     FM280500 VRB03KT P6SM BKN090=

USA.gov is the U.S. government's official web portal to all federal, state and local government web resources and services.